Terrace, Minnesota
Current Conditions -  °F | °C
As of 4:13 PM on Tuesday 25 Nov 2014 (Local Time) from KGHW Reporting Station
Scattered Clouds Scattered Clouds  
Wind Chill: 13°   Ceiling: Unl
Heat Index: 21°   Visibility: 10mi
Dew Point: 12°   Wind: 7mph
Humidity: 68%   Direction: 110°ESE
Pressure: 29.94"   Gusts: NA
Location:  45.6105°N, 95.373°W
Report Text: KGHW 252213Z AUTO 11006KT 10SM SCT040 M06/M11 A2994 RMK AO2
Loading
Personal Weather Stations






























Interactive Weather Map New forecast layout! Learn more

10-Day Weather Forecast

Advertisements
Track Severe Weather on mobile